sensor_id;sensor_type;location;lat;lon;timestamp;pressure;altitude;pressure_sealevel;temperature
53412;BMP280;39307;52.870;13.660;2023-04-15T00:00:51;100059.88;;;8.31
53412;BMP280;39307;52.870;13.660;2023-04-15T00:03:18;100059.66;;;8.33
53412;BMP280;39307;52.870;13.660;2023-04-15T00:05:44;100059.03;;;8.31
53412;BMP280;39307;52.870;13.660;2023-04-15T00:08:10;100055.44;;;8.32
53412;BMP280;39307;52.870;13.660;2023-04-15T00:10:36;100057.56;;;8.42
53412;BMP280;39307;52.870;13.660;2023-04-15T00:13:02;100063.34;;;8.38
53412;BMP280;39307;52.870;13.660;2023-04-15T00:15:29;100058.50;;;8.35
53412;BMP280;39307;52.870;13.660;2023-04-15T00:17:55;100055.09;;;8.35
53412;BMP280;39307;52.870;13.660;2023-04-15T00:20:21;100052.41;;;8.49
53412;BMP280;39307;52.870;13.660;2023-04-15T00:22:47;100056.81;;;8.48
53412;BMP280;39307;52.870;13.660;2023-04-15T00:25:13;100056.38;;;8.45
53412;BMP280;39307;52.870;13.660;2023-04-15T00:27:39;100060.44;;;8.47
53412;BMP280;39307;52.870;13.660;2023-04-15T00:30:06;100054.09;;;8.56
53412;BMP280;39307;52.870;13.660;2023-04-15T00:32:32;100047.50;;;8.39
53412;BMP280;39307;52.870;13.660;2023-04-15T00:34:59;100046.97;;;8.44
53412;BMP280;39307;52.870;13.660;2023-04-15T00:37:25;100055.44;;;8.32
53412;BMP280;39307;52.870;13.660;2023-04-15T00:39:51;100054.84;;;8.50
53412;BMP280;39307;52.870;13.660;2023-04-15T00:42:18;100053.66;;;8.53
53412;BMP280;39307;52.870;13.660;2023-04-15T00:44:45;100053.03;;;8.51
53412;BMP280;39307;52.870;13.660;2023-04-15T00:47:11;100051.84;;;8.33
53412;BMP280;39307;52.870;13.660;2023-04-15T00:49:38;100050.78;;;8.27
53412;BMP280;39307;52.870;13.660;2023-04-15T00:52:04;100047.00;;;8.30
53412;BMP280;39307;52.870;13.660;2023-04-15T00:54:30;100046.47;;;8.34
53412;BMP280;39307;52.870;13.660;2023-04-15T00:56:56;100045.81;;;8.32
53412;BMP280;39307;52.870;13.660;2023-04-15T00:59:23;100051.41;;;8.29
53412;BMP280;39307;52.870;13.660;2023-04-15T01:01:49;100044.34;;;8.44
53412;BMP280;39307;52.870;13.660;2023-04-15T01:04:16;100041.41;;;8.33
53412;BMP280;39307;52.870;13.660;2023-04-15T01:06:42;100037.94;;;8.26
53412;BMP280;39307;52.870;13.660;2023-04-15T01:09:08;100039.00;;;8.31
53412;BMP280;39307;52.870;13.660;2023-04-15T01:11:34;100037.81;;;8.34
53412;BMP280;39307;52.870;13.660;2023-04-15T01:14:00;100042.22;;;8.33
53412;BMP280;39307;52.870;13.660;2023-04-15T01:16:27;100040.16;;;8.29
53412;BMP280;39307;52.870;13.660;2023-04-15T01:18:53;100042.13;;;8.27
53412;BMP280;39307;52.870;13.660;2023-04-15T01:21:20;100046.22;;;8.50
53412;BMP280;39307;52.870;13.660;2023-04-15T01:23:47;100028.34;;;8.47
53412;BMP280;39307;52.870;13.660;2023-04-15T01:26:14;100036.63;;;8.36
53412;BMP280;39307;52.870;13.660;2023-04-15T01:28:40;100039.50;;;8.41
53412;BMP280;39307;52.870;13.660;2023-04-15T01:31:10;100040.97;;;8.29
53412;BMP280;39307;52.870;13.660;2023-04-15T01:33:37;100031.34;;;8.30
53412;BMP280;39307;52.870;13.660;2023-04-15T01:36:05;100030.72;;;8.28
53412;BMP280;39307;52.870;13.660;2023-04-15T01:38:32;100041.72;;;8.23
53412;BMP280;39307;52.870;13.660;2023-04-15T01:40:58;100038.81;;;8.33
53412;BMP280;39307;52.870;13.660;2023-04-15T01:43:25;100025.09;;;8.45
53412;BMP280;39307;52.870;13.660;2023-04-15T01:45:51;100028.81;;;8.36
53412;BMP280;39307;52.870;13.660;2023-04-15T01:48:18;100029.31;;;8.25
53412;BMP280;39307;52.870;13.660;2023-04-15T01:50:44;100026.56;;;8.33
53412;BMP280;39307;52.870;13.660;2023-04-15T01:53:10;100034.75;;;8.30
53412;BMP280;39307;52.870;13.660;2023-04-15T01:55:37;100026.56;;;8.33
53412;BMP280;39307;52.870;13.660;2023-04-15T01:58:03;100026.63;;;8.39
53412;BMP280;39307;52.870;13.660;2023-04-15T02:00:29;100014.97;;;8.35
53412;BMP280;39307;52.870;13.660;2023-04-15T02:02:55;100023.16;;;8.33
53412;BMP280;39307;52.870;13.660;2023-04-15T02:05:22;100028.38;;;8.33
53412;BMP280;39307;52.870;13.660;2023-04-15T02:07:48;100020.28;;;8.28
53412;BMP280;39307;52.870;13.660;2023-04-15T02:10:14;100018.75;;;8.33
53412;BMP280;39307;52.870;13.660;2023-04-15T02:12:40;100026.75;;;8.32
53412;BMP280;39307;52.870;13.660;2023-04-15T02:15:07;100017.50;;;8.29
53412;BMP280;39307;52.870;13.660;2023-04-15T02:17:35;100029.59;;;8.36
53412;BMP280;39307;52.870;13.660;2023-04-15T02:20:01;100033.03;;;8.37
53412;BMP280;39307;52.870;13.660;2023-04-15T02:22:27;100023.91;;;8.47
53412;BMP280;39307;52.870;13.660;2023-04-15T02:24:54;100025.09;;;8.45
53412;BMP280;39307;52.870;13.660;2023-04-15T02:27:20;100031.47;;;8.42
53412;BMP280;39307;52.870;13.660;2023-04-15T02:29:46;100031.47;;;8.42
53412;BMP280;39307;52.870;13.660;2023-04-15T02:32:12;100020.94;;;8.50
53412;BMP280;39307;52.870;13.660;2023-04-15T02:34:39;100021.41;;;8.39
53412;BMP280;39307;52.870;13.660;2023-04-15T02:37:06;100021.25;;;8.41
53412;BMP280;39307;52.870;13.660;2023-04-15T02:39:33;100020.19;;;8.35
53412;BMP280;39307;52.870;13.660;2023-04-15T02:41:59;100024.59;;;8.35
53412;BMP280;39307;52.870;13.660;2023-04-15T02:44:25;100016.81;;;8.41
53412;BMP280;39307;52.870;13.660;2023-04-15T02:46:52;100019.75;;;8.32
53412;BMP280;39307;52.870;13.660;2023-04-15T02:49:19;100028.00;;;8.35
53412;BMP280;39307;52.870;13.660;2023-04-15T02:51:45;100030.75;;;8.48
53412;BMP280;39307;52.870;13.660;2023-04-15T02:54:11;100014.66;;;8.45
53412;BMP280;39307;52.870;13.660;2023-04-15T02:56:37;100032.31;;;8.43
53412;BMP280;39307;52.870;13.660;2023-04-15T02:59:04;100030.19;;;8.32
53412;BMP280;39307;52.870;13.660;2023-04-15T03:01:30;100030.81;;;8.34
53412;BMP280;39307;52.870;13.660;2023-04-15T03:03:56;100035.03;;;8.35
53412;BMP280;39307;52.870;13.660;2023-04-15T03:06:22;100034.91;;;8.43
53412;BMP280;39307;52.870;13.660;2023-04-15T03:08:49;100036.47;;;8.37
53412;BMP280;39307;52.870;13.660;2023-04-15T03:11:15;100040.31;;;8.41
53412;BMP280;39307;52.870;13.660;2023-04-15T03:13:41;100040.72;;;8.45
53412;BMP280;39307;52.870;13.660;2023-04-15T03:16:08;100036.81;;;8.35
53412;BMP280;39307;52.870;13.660;2023-04-15T03:18:34;100035.66;;;8.37
53412;BMP280;39307;52.870;13.660;2023-04-15T03:21:01;100034.91;;;8.43
53412;BMP280;39307;52.870;13.660;2023-04-15T03:23:27;100038.94;;;8.45
53412;BMP280;39307;52.870;13.660;2023-04-15T03:25:53;100036.38;;;8.52
53412;BMP280;39307;52.870;13.660;2023-04-15T03:28:20;100032.34;;;8.70
53412;BMP280;39307;52.870;13.660;2023-04-15T03:30:46;100030.88;;;8.61
53412;BMP280;39307;52.870;13.660;2023-04-15T03:33:12;100034.63;;;8.52
53412;BMP280;39307;52.870;13.660;2023-04-15T03:35:38;100036.91;;;8.62
53412;BMP280;39307;52.870;13.660;2023-04-15T03:38:05;100042.22;;;8.54
53412;BMP280;39307;52.870;13.660;2023-04-15T03:40:31;100037.59;;;8.49
53412;BMP280;39307;52.870;13.660;2023-04-15T03:42:57;100039.00;;;8.52
53412;BMP280;39307;52.870;13.660;2023-04-15T03:45:24;100039.81;;;8.52
53412;BMP280;39307;52.870;13.660;2023-04-15T03:47:50;100039.19;;;8.71
53412;BMP280;39307;52.870;13.660;2023-04-15T03:50:17;100048.09;;;8.56
53412;BMP280;39307;52.870;13.660;2023-04-15T03:52:43;100040.13;;;8.63
53412;BMP280;39307;52.870;13.660;2023-04-15T03:55:10;100043.03;;;8.54
53412;BMP280;39307;52.870;13.660;2023-04-15T03:57:36;100039.19;;;8.50
53412;BMP280;39307;52.870;13.660;2023-04-15T04:00:03;100044.41;;;8.50
53412;BMP280;39307;52.870;13.660;2023-04-15T04:02:30;100033.84;;;8.79
53412;BMP280;39307;52.870;13.660;2023-04-15T04:04:56;100032.97;;;8.72
53412;BMP280;39307;52.870;13.660;2023-04-15T04:07:23;100042.78;;;8.70
53412;BMP280;39307;52.870;13.660;2023-04-15T04:09:49;100044.97;;;8.66
53412;BMP280;39307;52.870;13.660;2023-04-15T04:12:15;100050.38;;;8.65
53412;BMP280;39307;52.870;13.660;2023-04-15T04:14:42;100044.59;;;8.69
53412;BMP280;39307;52.870;13.660;2023-04-15T04:17:08;100045.97;;;8.65
53412;BMP280;39307;52.870;13.660;2023-04-15T04:19:34;100049.53;;;8.58
53412;BMP280;39307;52.870;13.660;2023-04-15T04:22:00;100044.59;;;8.69
53412;BMP280;39307;52.870;13.660;2023-04-15T04:24:27;100047.72;;;8.79
53412;BMP280;39307;52.870;13.660;2023-04-15T04:26:53;100052.75;;;8.81
53412;BMP280;39307;52.870;13.660;2023-04-15T04:29:19;100051.81;;;9.15
53412;BMP280;39307;52.870;13.660;2023-04-15T04:31:45;100052.16;;;9.06
53412;BMP280;39307;52.870;13.660;2023-04-15T04:34:11;100049.69;;;8.98
53412;BMP280;39307;52.870;13.660;2023-04-15T04:36:38;100065.28;;;8.92
53412;BMP280;39307;52.870;13.660;2023-04-15T04:39:04;100061.69;;;8.93
53412;BMP280;39307;52.870;13.660;2023-04-15T04:41:30;100058.41;;;9.11
53412;BMP280;39307;52.870;13.660;2023-04-15T04:43:56;100057.16;;;9.01
53412;BMP280;39307;52.870;13.660;2023-04-15T04:46:23;100060.25;;;8.90
53412;BMP280;39307;52.870;13.660;2023-04-15T04:48:50;100063.06;;;8.89
53412;BMP280;39307;52.870;13.660;2023-04-15T04:51:18;100059.63;;;8.88
53412;BMP280;39307;52.870;13.660;2023-04-15T04:53:44;100066.16;;;8.98
53412;BMP280;39307;52.870;13.660;2023-04-15T04:56:10;100072.16;;;9.20
53412;BMP280;39307;52.870;13.660;2023-04-15T04:58:36;100065.19;;;9.06
53412;BMP280;39307;52.870;13.660;2023-04-15T05:01:03;100074.53;;;8.94
53412;BMP280;39307;52.870;13.660;2023-04-15T05:03:29;100076.41;;;9.00
53412;BMP280;39307;52.870;13.660;2023-04-15T05:05:55;100081.38;;;8.95
53412;BMP280;39307;52.870;13.660;2023-04-15T05:08:22;100082.13;;;8.89
53412;BMP280;39307;52.870;13.660;2023-04-15T05:10:49;100082.50;;;9.07
53412;BMP280;39307;52.870;13.660;2023-04-15T05:13:15;100089.28;;;8.81
53412;BMP280;39307;52.870;13.660;2023-04-15T05:15:41;100100.09;;;8.78
53412;BMP280;39307;52.870;13.660;2023-04-15T05:18:07;100094.44;;;8.95
53412;BMP280;39307;52.870;13.660;2023-04-15T05:20:33;100083.78;;;8.96
53412;BMP280;39307;52.870;13.660;2023-04-15T05:23:00;100085.53;;;9.10
53412;BMP280;39307;52.870;13.660;2023-04-15T05:25:26;100086.75;;;9.14
53412;BMP280;39307;52.870;13.660;2023-04-15T05:27:52;100089.19;;;9.16
53412;BMP280;39307;52.870;13.660;2023-04-15T05:30:19;100094.72;;;9.06
53412;BMP280;39307;52.870;13.660;2023-04-15T05:32:45;100097.84;;;8.95
53412;BMP280;39307;52.870;13.660;2023-04-15T05:35:11;100088.94;;;9.11
53412;BMP280;39307;52.870;13.660;2023-04-15T05:37:37;100095.19;;;9.10
53412;BMP280;39307;52.870;13.660;2023-04-15T05:40:04;100094.16;;;9.31
53412;BMP280;39307;52.870;13.660;2023-04-15T05:42:30;100084.63;;;9.24
53412;BMP280;39307;52.870;13.660;2023-04-15T05:44:56;100096.63;;;9.19
53412;BMP280;39307;52.870;13.660;2023-04-15T05:47:22;100092.84;;;9.21
53412;BMP280;39307;52.870;13.660;2023-04-15T05:49:48;100100.69;;;9.21
53412;BMP280;39307;52.870;13.660;2023-04-15T05:52:15;100098.25;;;9.20
53412;BMP280;39307;52.870;13.660;2023-04-15T05:54:41;100089.91;;;9.30
53412;BMP280;39307;52.870;13.660;2023-04-15T05:57:07;100096.47;;;9.20
53412;BMP280;39307;52.870;13.660;2023-04-15T05:59:33;100092.63;;;9.43
53412;BMP280;39307;52.870;13.660;2023-04-15T06:01:59;100094.66;;;9.48
53412;BMP280;39307;52.870;13.660;2023-04-15T06:04:28;100095.38;;;9.35
53412;BMP280;39307;52.870;13.660;2023-04-15T06:06:55;100101.34;;;9.29
53412;BMP280;39307;52.870;13.660;2023-04-15T06:09:21;100100.13;;;9.52
53412;BMP280;39307;52.870;13.660;2023-04-15T06:11:47;100098.63;;;9.37
53412;BMP280;39307;52.870;13.660;2023-04-15T06:14:13;100097.84;;;9.43
53412;BMP280;39307;52.870;13.660;2023-04-15T06:16:39;100101.66;;;9.68
53412;BMP280;39307;52.870;13.660;2023-04-15T06:19:06;100104.41;;;9.60
53412;BMP280;39307;52.870;13.660;2023-04-15T06:21:32;100107.78;;;9.54
53412;BMP280;39307;52.870;13.660;2023-04-15T06:23:58;100106.25;;;9.39
53412;BMP280;39307;52.870;13.660;2023-04-15T06:26:25;100100.09;;;9.46
53412;BMP280;39307;52.870;13.660;2023-04-15T06:28:51;100102.53;;;9.54
53412;BMP280;39307;52.870;13.660;2023-04-15T06:31:17;100110.22;;;9.55
53412;BMP280;39307;52.870;13.660;2023-04-15T06:33:43;100101.91;;;9.79
53412;BMP280;39307;52.870;13.660;2023-04-15T06:36:09;100106.88;;;9.95
53412;BMP280;39307;52.870;13.660;2023-04-15T06:38:36;100106.09;;;9.74
53412;BMP280;39307;52.870;13.660;2023-04-15T06:41:02;100114.03;;;9.86
53412;BMP280;39307;52.870;13.660;2023-04-15T06:43:29;100116.94;;;9.98
53412;BMP280;39307;52.870;13.660;2023-04-15T06:45:55;100121.97;;;9.99
53412;BMP280;39307;52.870;13.660;2023-04-15T06:48:23;100120.44;;;10.17
53412;BMP280;39307;52.870;13.660;2023-04-15T06:50:49;100117.75;;;10.44
53412;BMP280;39307;52.870;13.660;2023-04-15T06:53:15;100122.06;;;10.18
53412;BMP280;39307;52.870;13.660;2023-04-15T06:55:41;100118.91;;;10.36
53412;BMP280;39307;52.870;13.660;2023-04-15T06:58:07;100116.47;;;10.28
53412;BMP280;39307;52.870;13.660;2023-04-15T07:00:34;100121.84;;;10.13
53412;BMP280;39307;52.870;13.660;2023-04-15T07:03:00;100123.69;;;10.19
53412;BMP280;39307;52.870;13.660;2023-04-15T07:05:26;100124.97;;;10.42
53412;BMP280;39307;52.870;13.660;2023-04-15T07:07:52;100132.66;;;10.44
53412;BMP280;39307;52.870;13.660;2023-04-15T07:10:19;100132.38;;;10.33
53412;BMP280;39307;52.870;13.660;2023-04-15T07:12:45;100129.28;;;10.63
53412;BMP280;39307;52.870;13.660;2023-04-15T07:15:11;100132.09;;;10.61
53412;BMP280;39307;52.870;13.660;2023-04-15T07:17:37;100142.63;;;10.74
53412;BMP280;39307;52.870;13.660;2023-04-15T07:20:03;100140.56;;;10.63
53412;BMP280;39307;52.870;13.660;2023-04-15T07:22:30;100146.97;;;10.54
53412;BMP280;39307;52.870;13.660;2023-04-15T07:24:56;100135.75;;;10.73
53412;BMP280;39307;52.870;13.660;2023-04-15T07:27:22;100143.56;;;10.60
53412;BMP280;39307;52.870;13.660;2023-04-15T07:29:48;100146.41;;;10.65
53412;BMP280;39307;52.870;13.660;2023-04-15T07:32:15;100140.53;;;10.50
53412;BMP280;39307;52.870;13.660;2023-04-15T07:34:41;100140.81;;;10.81
53412;BMP280;39307;52.870;13.660;2023-04-15T07:37:07;100150.00;;;10.64
53412;BMP280;39307;52.870;13.660;2023-04-15T07:39:33;100149.44;;;10.68
53412;BMP280;39307;52.870;13.660;2023-04-15T07:41:59;100152.69;;;10.77
53412;BMP280;39307;52.870;13.660;2023-04-15T07:44:26;100152.47;;;10.72
53412;BMP280;39307;52.870;13.660;2023-04-15T07:46:52;100153.75;;;10.89
53412;BMP280;39307;52.870;13.660;2023-04-15T07:49:19;100148.91;;;10.92
53412;BMP280;39307;52.870;13.660;2023-04-15T07:51:45;100148.91;;;10.98
53412;BMP280;39307;52.870;13.660;2023-04-15T07:54:11;100148.53;;;11.08
53412;BMP280;39307;52.870;13.660;2023-04-15T07:56:37;100155.59;;;11.07
53412;BMP280;39307;52.870;13.660;2023-04-15T07:59:03;100161.41;;;11.09
53412;BMP280;39307;52.870;13.660;2023-04-15T08:01:30;100159.22;;;11.13
53412;BMP280;39307;52.870;13.660;2023-04-15T08:03:56;100168.69;;;11.14
53412;BMP280;39307;52.870;13.660;2023-04-15T08:06:22;100168.28;;;11.17
53412;BMP280;39307;52.870;13.660;2023-04-15T08:08:48;100166.06;;;11.14
53412;BMP280;39307;52.870;13.660;2023-04-15T08:11:15;100170.28;;;11.15
53412;BMP280;39307;52.870;13.660;2023-04-15T08:13:41;100166.25;;;11.12
53412;BMP280;39307;52.870;13.660;2023-04-15T08:16:33;100171.53;;;11.25
53412;BMP280;39307;52.870;13.660;2023-04-15T08:18:59;100171.72;;;11.36
53412;BMP280;39307;52.870;13.660;2023-04-15T08:21:26;100173.13;;;11.13
53412;BMP280;39307;52.870;13.660;2023-04-15T08:23:52;100176.72;;;11.12
53412;BMP280;39307;52.870;13.660;2023-04-15T08:26:19;100170.69;;;11.18
53412;BMP280;39307;52.870;13.660;2023-04-15T08:28:46;100164.66;;;11.30
53412;BMP280;39307;52.870;13.660;2023-04-15T08:31:14;100169.53;;;11.40
53412;BMP280;39307;52.870;13.660;2023-04-15T08:33:40;100175.78;;;11.52
53412;BMP280;39307;52.870;13.660;2023-04-15T08:36:07;100166.72;;;11.48
53412;BMP280;39307;52.870;13.660;2023-04-15T08:38:33;100168.34;;;11.42
53412;BMP280;39307;52.870;13.660;2023-04-15T08:41:06;100174.41;;;11.49
53412;BMP280;39307;52.870;13.660;2023-04-15T08:43:34;100170.97;;;11.42
53412;BMP280;39307;52.870;13.660;2023-04-15T08:46:03;100185.63;;;11.24
53412;BMP280;39307;52.870;13.660;2023-04-15T08:48:32;100173.38;;;11.56
53412;BMP280;39307;52.870;13.660;2023-04-15T08:50:59;100184.91;;;11.49
53412;BMP280;39307;52.870;13.660;2023-04-15T08:53:27;100178.81;;;11.42
53412;BMP280;39307;52.870;13.660;2023-04-15T08:55:54;100182.25;;;11.75
53412;BMP280;39307;52.870;13.660;2023-04-15T08:58:21;100181.66;;;11.53
53412;BMP280;39307;52.870;13.660;2023-04-15T09:00:47;100185.47;;;11.51
53412;BMP280;39307;52.870;13.660;2023-04-15T09:03:14;100180.06;;;11.53
53412;BMP280;39307;52.870;13.660;2023-04-15T09:05:41;100181.84;;;11.46
53412;BMP280;39307;52.870;13.660;2023-04-15T09:08:07;100187.69;;;11.73
53412;BMP280;39307;52.870;13.660;2023-04-15T09:10:33;100189.09;;;11.76
53412;BMP280;39307;52.870;13.660;2023-04-15T09:13:00;100191.75;;;11.63
53412;BMP280;39307;52.870;13.660;2023-04-15T09:15:27;100193.16;;;11.59
53412;BMP280;39307;52.870;13.660;2023-04-15T09:17:53;100194.97;;;11.65
53412;BMP280;39307;52.870;13.660;2023-04-15T09:20:19;100198.59;;;11.64
53412;BMP280;39307;52.870;13.660;2023-04-15T09:22:48;100200.81;;;11.80
53412;BMP280;39307;52.870;13.660;2023-04-15T09:27:50;100201.41;;;11.69
53412;BMP280;39307;52.870;13.660;2023-04-15T09:30:17;100212.50;;;11.52
53412;BMP280;39307;52.870;13.660;2023-04-15T09:32:53;100209.28;;;11.69
53412;BMP280;39307;52.870;13.660;2023-04-15T09:35:21;100209.69;;;11.66
53412;BMP280;39307;52.870;13.660;2023-04-15T09:37:51;100215.34;;;11.50
53412;BMP280;39307;52.870;13.660;2023-04-15T09:40:34;100220.56;;;11.50
53412;BMP280;39307;52.870;13.660;2023-04-15T09:43:05;100212.72;;;11.69
53412;BMP280;39307;52.870;13.660;2023-04-15T09:45:32;100218.56;;;11.78
53412;BMP280;39307;52.870;13.660;2023-04-15T09:48:15;100220.78;;;11.68
53412;BMP280;39307;52.870;13.660;2023-04-15T09:50:43;100228.66;;;11.74
53412;BMP280;39307;52.870;13.660;2023-04-15T09:53:10;100224.81;;;11.70
53412;BMP280;39307;52.870;13.660;2023-04-15T09:55:37;100236.09;;;11.52
53412;BMP280;39307;52.870;13.660;2023-04-15T09:58:08;100233.69;;;11.63
53412;BMP280;39307;52.870;13.660;2023-04-15T10:00:43;100230.66;;;11.79
53412;BMP280;39307;52.870;13.660;2023-04-15T10:03:09;100239.72;;;11.70
53412;BMP280;39307;52.870;13.660;2023-04-15T10:05:36;100235.31;;;11.77
53412;BMP280;39307;52.870;13.660;2023-04-15T10:08:03;100236.53;;;11.74
53412;BMP280;39307;52.870;13.660;2023-04-15T10:10:30;100251.44;;;11.67
53412;BMP280;39307;52.870;13.660;2023-04-15T10:12:57;100237.91;;;11.57
53412;BMP280;39307;52.870;13.660;2023-04-15T10:15:24;100245.38;;;11.60
53412;BMP280;39307;52.870;13.660;2023-04-15T10:17:52;100248.41;;;11.64
53412;BMP280;39307;52.870;13.660;2023-04-15T10:20:19;100244.38;;;11.87
53412;BMP280;39307;52.870;13.660;2023-04-15T10:22:47;100247.19;;;11.66
53412;BMP280;39307;52.870;13.660;2023-04-15T10:25:14;100243.56;;;11.54
53412;BMP280;39307;52.870;13.660;2023-04-15T10:27:41;100254.25;;;11.72
53412;BMP280;39307;52.870;13.660;2023-04-15T10:30:08;100244.56;;;11.66
53412;BMP280;39307;52.870;13.660;2023-04-15T10:32:34;100242.97;;;11.91
53412;BMP280;39307;52.870;13.660;2023-04-15T10:35:01;100248.03;;;11.92
53412;BMP280;39307;52.870;13.660;2023-04-15T10:37:36;100246.78;;;11.88
53412;BMP280;39307;52.870;13.660;2023-04-15T10:40:27;100243.19;;;11.83
53412;BMP280;39307;52.870;13.660;2023-04-15T10:42:54;100248.41;;;11.64
53412;BMP280;39307;52.870;13.660;2023-04-15T10:45:21;100247.41;;;11.71
53412;BMP280;39307;52.870;13.660;2023-04-15T10:47:57;100259.28;;;11.61
53412;BMP280;39307;52.870;13.660;2023-04-15T10:50:27;100249.41;;;11.88
53412;BMP280;39307;52.870;13.660;2023-04-15T10:52:54;100251.03;;;11.96
53412;BMP280;39307;52.870;13.660;2023-04-15T10:55:32;100251.03;;;11.70
53412;BMP280;39307;52.870;13.660;2023-04-15T10:58:00;100251.63;;;11.72
53412;BMP280;39307;52.870;13.660;2023-04-15T11:00:31;100254.47;;;11.90
53412;BMP280;39307;52.870;13.660;2023-04-15T11:03:03;100252.66;;;11.97
53412;BMP280;39307;52.870;13.660;2023-04-15T11:05:51;100255.50;;;11.82
53412;BMP280;39307;52.870;13.660;2023-04-15T11:08:17;100258.28;;;11.94
53412;BMP280;39307;52.870;13.660;2023-04-15T11:15:43;100254.66;;;11.88
53412;BMP280;39307;52.870;13.660;2023-04-15T11:20:45;100273.84;;;12.02
53412;BMP280;39307;52.870;13.660;2023-04-15T11:23:13;100279.69;;;11.84
53412;BMP280;39307;52.870;13.660;2023-04-15T11:25:39;100273.41;;;11.79
53412;BMP280;39307;52.870;13.660;2023-04-15T11:28:06;100285.16;;;11.83
53412;BMP280;39307;52.870;13.660;2023-04-15T11:30:34;100290.38;;;11.83
53412;BMP280;39307;52.870;13.660;2023-04-15T11:33:05;100290.16;;;11.78
53412;BMP280;39307;52.870;13.660;2023-04-15T11:35:32;100287.34;;;11.73
53412;BMP280;39307;52.870;13.660;2023-04-15T11:38:03;100294.41;;;11.73
53412;BMP280;39307;52.870;13.660;2023-04-15T11:40:31;100296.22;;;11.66
53412;BMP280;39307;52.870;13.660;2023-04-15T11:43:11;100304.47;;;11.69
53412;BMP280;39307;52.870;13.660;2023-04-15T11:46:00;100299.22;;;11.56
53412;BMP280;39307;52.870;13.660;2023-04-15T11:48:34;100295.59;;;11.64
53412;BMP280;39307;52.870;13.660;2023-04-15T11:51:03;100310.53;;;11.70
53412;BMP280;39307;52.870;13.660;2023-04-15T11:53:43;100314.66;;;11.39
53412;BMP280;39307;52.870;13.660;2023-04-15T11:56:15;100309.94;;;11.61
53412;BMP280;39307;52.870;13.660;2023-04-15T11:58:42;100313.75;;;11.53
53412;BMP280;39307;52.870;13.660;2023-04-15T12:01:08;100316.75;;;11.50
53412;BMP280;39307;52.870;13.660;2023-04-15T12:03:48;100323.03;;;11.61
53412;BMP280;39307;52.870;13.660;2023-04-15T12:06:16;100324.81;;;11.54
53412;BMP280;39307;52.870;13.660;2023-04-15T12:09:02;100324.91;;;11.34
53412;BMP280;39307;52.870;13.660;2023-04-15T12:11:32;100326.16;;;11.38
53412;BMP280;39307;52.870;13.660;2023-04-15T12:17:00;100332.19;;;11.38
53412;BMP280;39307;52.870;13.660;2023-04-15T12:19:33;100329.16;;;11.28
53412;BMP280;39307;52.870;13.660;2023-04-15T12:22:11;100331.47;;;11.51
53412;BMP280;39307;52.870;13.660;2023-04-15T12:24:38;100334.72;;;11.53
53412;BMP280;39307;52.870;13.660;2023-04-15T12:27:05;100333.69;;;11.47
53412;BMP280;39307;52.870;13.660;2023-04-15T12:29:33;100331.63;;;11.43
53412;BMP280;39307;52.870;13.660;2023-04-15T12:32:07;100337.88;;;11.42
53412;BMP280;39307;52.870;13.660;2023-04-15T12:34:45;100335.00;;;11.37
53412;BMP280;39307;52.870;13.660;2023-04-15T12:37:14;100342.66;;;11.32
53412;BMP280;39307;52.870;13.660;2023-04-15T12:39:43;100337.50;;;11.45
53412;BMP280;39307;52.870;13.660;2023-04-15T12:42:10;100344.97;;;11.48
53412;BMP280;39307;52.870;13.660;2023-04-15T12:44:37;100345.56;;;11.43
53412;BMP280;39307;52.870;13.660;2023-04-15T12:47:04;100351.63;;;11.44
53412;BMP280;39307;52.870;13.660;2023-04-15T12:49:30;100350.19;;;11.41
53412;BMP280;39307;52.870;13.660;2023-04-15T12:51:57;100349.38;;;11.41
53412;BMP280;39307;52.870;13.660;2023-04-15T12:54:24;100354.66;;;11.47
53412;BMP280;39307;52.870;13.660;2023-04-15T12:56:50;100358.28;;;11.46
53412;BMP280;39307;52.870;13.660;2023-04-15T12:59:17;100365.00;;;11.74
53412;BMP280;39307;52.870;13.660;2023-04-15T13:01:44;100369.78;;;11.52
53412;BMP280;39307;52.870;13.660;2023-04-15T13:04:11;100366.16;;;11.53
53412;BMP280;39307;52.870;13.660;2023-04-15T13:06:38;100366.38;;;11.64
53412;BMP280;39307;52.870;13.660;2023-04-15T13:09:04;100370.44;;;11.73
53412;BMP280;39307;52.870;13.660;2023-04-15T13:11:30;100372.47;;;11.64
53412;BMP280;39307;52.870;13.660;2023-04-15T13:13:57;100373.66;;;11.62
53412;BMP280;39307;52.870;13.660;2023-04-15T13:16:23;100382.47;;;11.54
53412;BMP280;39307;52.870;13.660;2023-04-15T13:18:50;100371.06;;;11.75
53412;BMP280;39307;52.870;13.660;2023-04-15T13:21:17;100376.06;;;11.63
53412;BMP280;39307;52.870;13.660;2023-04-15T13:23:43;100382.72;;;11.66
53412;BMP280;39307;52.870;13.660;2023-04-15T13:26:10;100378.03;;;11.49
53412;BMP280;39307;52.870;13.660;2023-04-15T13:28:36;100380.78;;;11.34
53412;BMP280;39307;52.870;13.660;2023-04-15T13:31:02;100387.25;;;11.38
53412;BMP280;39307;52.870;13.660;2023-04-15T13:33:29;100379.44;;;11.45
53412;BMP280;39307;52.870;13.660;2023-04-15T13:35:55;100386.91;;;11.48
53412;BMP280;39307;52.870;13.660;2023-04-15T13:38:23;100386.34;;;11.58
53412;BMP280;39307;52.870;13.660;2023-04-15T13:40:49;100390.81;;;11.64
53412;BMP280;39307;52.870;13.660;2023-04-15T13:43:15;100391.72;;;11.44
53412;BMP280;39307;52.870;13.660;2023-04-15T13:45:42;100389.97;;;11.57
53412;BMP280;39307;52.870;13.660;2023-04-15T13:48:10;100388.50;;;11.49
53412;BMP280;39307;52.870;13.660;2023-04-15T13:50:36;100397.53;;;11.40
53412;BMP280;39307;52.870;13.660;2023-04-15T13:53:02;100394.00;;;11.60
53412;BMP280;39307;52.870;13.660;2023-04-15T13:55:28;100401.00;;;11.40
53412;BMP280;39307;52.870;13.660;2023-04-15T13:57:55;100402.63;;;11.48
53412;BMP280;39307;52.870;13.660;2023-04-15T14:00:21;100408.22;;;11.38
53412;BMP280;39307;52.870;13.660;2023-04-15T14:02:48;100410.31;;;11.49
53412;BMP280;39307;52.870;13.660;2023-04-15T14:05:14;100411.84;;;11.37